sensor_id;sensor_type;location;lat;lon;timestamp;pressure;altitude;pressure_sealevel;temperature;humidity
52535;BME280;38443;53.164;5.802;2023-12-20T00:00:39;102515.59;;;4.38;100.00
52535;BME280;38443;53.164;5.802;2023-12-20T00:03:04;102500.38;;;4.31;100.00
52535;BME280;38443;53.164;5.802;2023-12-20T00:05:30;102481.63;;;4.22;100.00
52535;BME280;38443;53.164;5.802;2023-12-20T00:07:57;102460.31;;;4.15;100.00
52535;BME280;38443;53.164;5.802;2023-12-20T00:10:22;102448.72;;;4.12;100.00
52535;BME280;38443;53.164;5.802;2023-12-20T00:12:47;102447.84;;;4.11;100.00
52535;BME280;38443;53.164;5.802;2023-12-20T00:15:13;102431.91;;;4.10;100.00
52535;BME280;38443;53.164;5.802;2023-12-20T00:17:38;102409.72;;;4.06;100.00
52535;BME280;38443;53.164;5.802;2023-12-20T00:20:03;102407.13;;;4.08;100.00
52535;BME280;38443;53.164;5.802;2023-12-20T00:22:29;102397.44;;;4.10;100.00
52535;BME280;38443;53.164;5.802;2023-12-20T00:24:54;102382.56;;;4.16;100.00
52535;BME280;38443;53.164;5.802;2023-12-20T00:27:19;102368.66;;;4.27;100.00
52535;BME280;38443;53.164;5.802;2023-12-20T00:29:44;102348.50;;;4.33;100.00
52535;BME280;38443;53.164;5.802;2023-12-20T00:32:13;102317.66;;;4.38;100.00
52535;BME280;38443;53.164;5.802;2023-12-20T00:34:38;102303.47;;;4.36;100.00
52535;BME280;38443;53.164;5.802;2023-12-20T00:37:03;102290.25;;;4.38;100.00
52535;BME280;38443;53.164;5.802;2023-12-20T00:39:29;102275.34;;;4.43;100.00
52535;BME280;38443;53.164;5.802;2023-12-20T00:41:54;102267.50;;;4.49;100.00
52535;BME280;38443;53.164;5.802;2023-12-20T00:44:19;102247.22;;;4.53;100.00
52535;BME280;38443;53.164;5.802;2023-12-20T00:46:44;102228.69;;;4.54;100.00
52535;BME280;38443;53.164;5.802;2023-12-20T00:49:10;102216.31;;;4.53;100.00
52535;BME280;38443;53.164;5.802;2023-12-20T00:51:35;102186.28;;;4.54;100.00
52535;BME280;38443;53.164;5.802;2023-12-20T00:54:00;102192.50;;;4.56;100.00
52535;BME280;38443;53.164;5.802;2023-12-20T00:56:25;102173.97;;;4.58;100.00
52535;BME280;38443;53.164;5.802;2023-12-20T00:58:51;102162.59;;;4.64;100.00
52535;BME280;38443;53.164;5.802;2023-12-20T01:01:16;102143.22;;;4.69;100.00
52535;BME280;38443;53.164;5.802;2023-12-20T01:03:42;102124.66;;;4.71;100.00
52535;BME280;38443;53.164;5.802;2023-12-20T01:06:07;102107.06;;;4.76;100.00
52535;BME280;38443;53.164;5.802;2023-12-20T01:08:32;102100.91;;;4.78;100.00
52535;BME280;38443;53.164;5.802;2023-12-20T01:11:00;102084.16;;;4.79;100.00
52535;BME280;38443;53.164;5.802;2023-12-20T01:13:25;102064.66;;;4.77;100.00
52535;BME280;38443;53.164;5.802;2023-12-20T01:15:50;102047.91;;;4.80;100.00
52535;BME280;38443;53.164;5.802;2023-12-20T01:18:15;102028.44;;;4.81;100.00
52535;BME280;38443;53.164;5.802;2023-12-20T01:20:41;102019.69;;;4.87;100.00
52535;BME280;38443;53.164;5.802;2023-12-20T01:23:06;102006.44;;;4.88;100.00
52535;BME280;38443;53.164;5.802;2023-12-20T01:25:31;102005.66;;;4.95;100.00
52535;BME280;38443;53.164;5.802;2023-12-20T01:27:56;101980.94;;;4.99;100.00
52535;BME280;38443;53.164;5.802;2023-12-20T01:30:22;101971.25;;;5.05;100.00
52535;BME280;38443;53.164;5.802;2023-12-20T01:32:47;101958.97;;;5.10;100.00
52535;BME280;38443;53.164;5.802;2023-12-20T01:35:12;101954.56;;;5.13;100.00
52535;BME280;38443;53.164;5.802;2023-12-20T01:37:38;101940.41;;;5.14;100.00
52535;BME280;38443;53.164;5.802;2023-12-20T01:40:04;101932.47;;;5.16;100.00
52535;BME280;38443;53.164;5.802;2023-12-20T01:42:29;101923.63;;;5.15;100.00
52535;BME280;38443;53.164;5.802;2023-12-20T01:44:54;101907.69;;;5.14;100.00
52535;BME280;38443;53.164;5.802;2023-12-20T01:47:20;101894.41;;;5.12;100.00
52535;BME280;38443;53.164;5.802;2023-12-20T01:49:46;101884.66;;;5.10;100.00
52535;BME280;38443;53.164;5.802;2023-12-20T01:52:11;101866.97;;;5.10;100.00
52535;BME280;38443;53.164;5.802;2023-12-20T01:54:37;101846.66;;;5.14;100.00
52535;BME280;38443;53.164;5.802;2023-12-20T01:57:02;101835.16;;;5.16;100.00
52535;BME280;38443;53.164;5.802;2023-12-20T01:59:29;101815.72;;;5.17;100.00
52535;BME280;38443;53.164;5.802;2023-12-20T02:01:55;101809.53;;;5.18;100.00
52535;BME280;38443;53.164;5.802;2023-12-20T02:04:20;101803.34;;;5.21;100.00
52535;BME280;38443;53.164;5.802;2023-12-20T02:06:46;101797.22;;;5.27;100.00
52535;BME280;38443;53.164;5.802;2023-12-20T02:09:11;101790.13;;;5.26;100.00
52535;BME280;38443;53.164;5.802;2023-12-20T02:11:37;101776.88;;;5.26;100.00
52535;BME280;38443;53.164;5.802;2023-12-20T02:14:03;101777.75;;;5.26;100.00
52535;BME280;38443;53.164;5.802;2023-12-20T02:16:28;101775.06;;;5.23;100.00
52535;BME280;38443;53.164;5.802;2023-12-20T02:18:53;101757.34;;;5.19;100.00
52535;BME280;38443;53.164;5.802;2023-12-20T02:21:23;101751.13;;;5.15;100.00
52535;BME280;38443;53.164;5.802;2023-12-20T02:23:49;101736.97;;;5.13;100.00
52535;BME280;38443;53.164;5.802;2023-12-20T02:26:14;101727.25;;;5.14;100.00
52535;BME280;38443;53.164;5.802;2023-12-20T02:28:39;101715.75;;;5.18;100.00
52535;BME280;38443;53.164;5.802;2023-12-20T02:31:05;101706.91;;;5.19;100.00
52535;BME280;38443;53.164;5.802;2023-12-20T02:33:30;101698.94;;;5.19;100.00
52535;BME280;38443;53.164;5.802;2023-12-20T02:35:55;101681.22;;;5.15;100.00
52535;BME280;38443;53.164;5.802;2023-12-20T02:38:20;101672.38;;;5.11;100.00
52535;BME280;38443;53.164;5.802;2023-12-20T02:40:46;101662.63;;;5.09;100.00
52535;BME280;38443;53.164;5.802;2023-12-20T02:43:11;101665.28;;;5.10;100.00
52535;BME280;38443;53.164;5.802;2023-12-20T02:45:36;101667.97;;;5.13;100.00
52535;BME280;38443;53.164;5.802;2023-12-20T02:48:01;101658.25;;;5.15;100.00
52535;BME280;38443;53.164;5.802;2023-12-20T02:50:29;101648.50;;;5.14;100.00
52535;BME280;38443;53.164;5.802;2023-12-20T02:52:55;101655.59;;;5.14;100.00
52535;BME280;38443;53.164;5.802;2023-12-20T02:55:20;101657.38;;;5.13;100.00
52535;BME280;38443;53.164;5.802;2023-12-20T02:57:45;101646.72;;;5.07;100.00
52535;BME280;38443;53.164;5.802;2023-12-20T03:00:11;101648.44;;;5.04;100.00
52535;BME280;38443;53.164;5.802;2023-12-20T03:02:36;101640.50;;;5.04;100.00
52535;BME280;38443;53.164;5.802;2023-12-20T03:05:02;101632.56;;;5.08;100.00
52535;BME280;38443;53.164;5.802;2023-12-20T03:07:27;101623.75;;;5.14;100.00
52535;BME280;38443;53.164;5.802;2023-12-20T03:09:52;101620.22;;;5.16;100.00
52535;BME280;38443;53.164;5.802;2023-12-20T03:12:18;101614.94;;;5.19;100.00
52535;BME280;38443;53.164;5.802;2023-12-20T03:14:43;101611.41;;;5.27;100.00
52535;BME280;38443;53.164;5.802;2023-12-20T03:17:09;101597.28;;;5.28;100.00
52535;BME280;38443;53.164;5.802;2023-12-20T03:19:34;101593.72;;;5.29;100.00
52535;BME280;38443;53.164;5.802;2023-12-20T03:21:59;101592.88;;;5.31;100.00
52535;BME280;38443;53.164;5.802;2023-12-20T03:24:26;101588.44;;;5.35;100.00
52535;BME280;38443;53.164;5.802;2023-12-20T03:26:51;101581.41;;;5.42;100.00
52535;BME280;38443;53.164;5.802;2023-12-20T03:29:16;101593.78;;;5.41;100.00
52535;BME280;38443;53.164;5.802;2023-12-20T03:31:42;101603.50;;;5.40;100.00
52535;BME280;38443;53.164;5.802;2023-12-20T03:34:07;101605.28;;;5.43;100.00
52535;BME280;38443;53.164;5.802;2023-12-20T03:36:32;101596.47;;;5.44;100.00
52535;BME280;38443;53.164;5.802;2023-12-20T03:38:57;101589.38;;;5.42;100.00
52535;BME280;38443;53.164;5.802;2023-12-20T03:41:22;101576.09;;;5.40;100.00
52535;BME280;38443;53.164;5.802;2023-12-20T03:43:48;101572.56;;;5.39;100.00
52535;BME280;38443;53.164;5.802;2023-12-20T03:46:13;101572.53;;;5.41;100.00
52535;BME280;38443;53.164;5.802;2023-12-20T03:48:38;101564.59;;;5.43;100.00
52535;BME280;38443;53.164;5.802;2023-12-20T03:51:04;101546.88;;;5.43;100.00
52535;BME280;38443;53.164;5.802;2023-12-20T03:53:29;101544.25;;;5.48;100.00
52535;BME280;38443;53.164;5.802;2023-12-20T03:55:54;101554.91;;;5.54;100.00
52535;BME280;38443;53.164;5.802;2023-12-20T03:58:19;101549.59;;;5.55;100.00
52535;BME280;38443;53.164;5.802;2023-12-20T04:00:45;101543.41;;;5.58;100.00
52535;BME280;38443;53.164;5.802;2023-12-20T04:03:10;101531.88;;;5.59;100.00
52535;BME280;38443;53.164;5.802;2023-12-20T04:05:39;101531.88;;;5.54;100.00
52535;BME280;38443;53.164;5.802;2023-12-20T04:08:05;101524.81;;;5.52;100.00
52535;BME280;38443;53.164;5.802;2023-12-20T04:10:30;101510.63;;;5.50;100.00
52535;BME280;38443;53.164;5.802;2023-12-20T04:12:56;101523.03;;;5.48;100.00
52535;BME280;38443;53.164;5.802;2023-12-20T04:15:21;101523.00;;;5.46;100.00
52535;BME280;38443;53.164;5.802;2023-12-20T04:17:46;101523.00;;;5.46;100.00
52535;BME280;38443;53.164;5.802;2023-12-20T04:20:11;101508.84;;;5.46;100.00
52535;BME280;38443;53.164;5.802;2023-12-20T04:22:37;101520.38;;;5.48;100.00
52535;BME280;38443;53.164;5.802;2023-12-20T04:25:02;101533.63;;;5.48;100.00
52535;BME280;38443;53.164;5.802;2023-12-20T04:27:27;101534.53;;;5.50;100.00
52535;BME280;38443;53.164;5.802;2023-12-20T04:29:52;101548.69;;;5.52;100.00
52535;BME280;38443;53.164;5.802;2023-12-20T04:32:18;101545.16;;;5.54;100.00
52535;BME280;38443;53.164;5.802;2023-12-20T04:34:43;101546.94;;;5.54;100.00
52535;BME280;38443;53.164;5.802;2023-12-20T04:37:08;101557.56;;;5.55;100.00
52535;BME280;38443;53.164;5.802;2023-12-20T04:39:33;101559.31;;;5.56;100.00
52535;BME280;38443;53.164;5.802;2023-12-20T04:41:59;101559.31;;;5.56;100.00
52535;BME280;38443;53.164;5.802;2023-12-20T04:44:24;101554.03;;;5.58;100.00
52535;BME280;38443;53.164;5.802;2023-12-20T04:46:49;101558.44;;;5.60;100.00
52535;BME280;38443;53.164;5.802;2023-12-20T04:49:14;101559.34;;;5.64;100.00
52535;BME280;38443;53.164;5.802;2023-12-20T04:51:40;101562.91;;;5.66;100.00
52535;BME280;38443;53.164;5.802;2023-12-20T04:54:05;101550.47;;;5.65;100.00
52535;BME280;38443;53.164;5.802;2023-12-20T04:56:30;101559.34;;;5.69;100.00
52535;BME280;38443;53.164;5.802;2023-12-20T04:58:55;101558.47;;;5.70;100.00
52535;BME280;38443;53.164;5.802;2023-12-20T05:01:21;101552.28;;;5.74;100.00
52535;BME280;38443;53.164;5.802;2023-12-20T05:03:46;101550.50;;;5.74;100.00
52535;BME280;38443;53.164;5.802;2023-12-20T05:06:12;101543.44;;;5.76;100.00
52535;BME280;38443;53.164;5.802;2023-12-20T05:08:37;101546.09;;;5.78;100.00
52535;BME280;38443;53.164;5.802;2023-12-20T05:11:02;101537.25;;;5.77;100.00
52535;BME280;38443;53.164;5.802;2023-12-20T05:13:28;101536.34;;;5.78;100.00
52535;BME280;38443;53.164;5.802;2023-12-20T05:15:53;101530.16;;;5.76;100.00
52535;BME280;38443;53.164;5.802;2023-12-20T05:18:20;101524.84;;;5.76;100.00
52535;BME280;38443;53.164;5.802;2023-12-20T05:20:45;101531.03;;;5.77;100.00
52535;BME280;38443;53.164;5.802;2023-12-20T05:23:11;101511.56;;;5.76;100.00
52535;BME280;38443;53.164;5.802;2023-12-20T05:25:36;101511.56;;;5.78;100.00
52535;BME280;38443;53.164;5.802;2023-12-20T05:28:02;101508.91;;;5.79;100.00
52535;BME280;38443;53.164;5.802;2023-12-20T05:30:27;101513.34;;;5.80;100.00
52535;BME280;38443;53.164;5.802;2023-12-20T05:32:52;101513.34;;;5.84;100.00
52535;BME280;38443;53.164;5.802;2023-12-20T05:35:17;101515.13;;;5.88;100.00
52535;BME280;38443;53.164;5.802;2023-12-20T05:37:43;101498.28;;;5.89;100.00
52535;BME280;38443;53.164;5.802;2023-12-20T05:40:08;101509.78;;;5.91;100.00
52535;BME280;38443;53.164;5.802;2023-12-20T05:42:37;101508.03;;;5.88;100.00
52535;BME280;38443;53.164;5.802;2023-12-20T05:45:03;101501.84;;;5.88;100.00
52535;BME280;38443;53.164;5.802;2023-12-20T05:47:29;101498.28;;;5.90;100.00
52535;BME280;38443;53.164;5.802;2023-12-20T05:49:54;101498.28;;;5.90;100.00
52535;BME280;38443;53.164;5.802;2023-12-20T05:52:19;101487.69;;;5.93;100.00
52535;BME280;38443;53.164;5.802;2023-12-20T05:54:45;101491.22;;;5.97;100.00
52535;BME280;38443;53.164;5.802;2023-12-20T05:57:10;101477.06;;;5.96;100.00
52535;BME280;38443;53.164;5.802;2023-12-20T05:59:35;101477.94;;;5.97;100.00
52535;BME280;38443;53.164;5.802;2023-12-20T06:02:00;101478.84;;;5.97;100.00
52535;BME280;38443;53.164;5.802;2023-12-20T06:04:26;101466.44;;;6.01;100.00
52535;BME280;38443;53.164;5.802;2023-12-20T06:06:51;101465.56;;;6.04;100.00
52535;BME280;38443;53.164;5.802;2023-12-20T06:09:16;101458.44;;;6.07;100.00
52535;BME280;38443;53.164;5.802;2023-12-20T06:11:42;101453.16;;;6.04;100.00
52535;BME280;38443;53.164;5.802;2023-12-20T06:14:07;101458.47;;;6.04;100.00
52535;BME280;38443;53.164;5.802;2023-12-20T06:16:32;101457.59;;;6.04;100.00
52535;BME280;38443;53.164;5.802;2023-12-20T06:18:57;101433.66;;;6.05;100.00
52535;BME280;38443;53.164;5.802;2023-12-20T06:21:23;101438.97;;;6.07;100.00
52535;BME280;38443;53.164;5.802;2023-12-20T06:23:48;101431.00;;;6.07;100.00
52535;BME280;38443;53.164;5.802;2023-12-20T06:26:13;101431.00;;;6.07;100.00
52535;BME280;38443;53.164;5.802;2023-12-20T06:28:39;101427.47;;;6.08;100.00
52535;BME280;38443;53.164;5.802;2023-12-20T06:31:04;101424.78;;;6.09;100.00
52535;BME280;38443;53.164;5.802;2023-12-20T06:33:29;101423.03;;;6.10;100.00
52535;BME280;38443;53.164;5.802;2023-12-20T06:35:56;101424.78;;;6.14;100.00
52535;BME280;38443;53.164;5.802;2023-12-20T06:38:21;101427.47;;;6.15;100.00
52535;BME280;38443;53.164;5.802;2023-12-20T06:40:47;101415.06;;;6.16;100.00
52535;BME280;38443;53.164;5.802;2023-12-20T06:43:12;101412.41;;;6.16;100.00
52535;BME280;38443;53.164;5.802;2023-12-20T06:45:39;101402.63;;;6.16;100.00
52535;BME280;38443;53.164;5.802;2023-12-20T06:48:05;101409.75;;;6.17;100.00
52535;BME280;38443;53.164;5.802;2023-12-20T06:50:30;101409.72;;;6.16;100.00
52535;BME280;38443;53.164;5.802;2023-12-20T06:52:56;101412.41;;;6.16;100.00
52535;BME280;38443;53.164;5.802;2023-12-20T06:55:21;101406.16;;;6.17;100.00
52535;BME280;38443;53.164;5.802;2023-12-20T06:57:46;101377.81;;;6.19;100.00
52535;BME280;38443;53.164;5.802;2023-12-20T07:00:12;101400.84;;;6.18;100.00
52535;BME280;38443;53.164;5.802;2023-12-20T07:02:37;101403.53;;;6.15;100.00
52535;BME280;38443;53.164;5.802;2023-12-20T07:05:03;101399.09;;;6.13;100.00
52535;BME280;38443;53.164;5.802;2023-12-20T07:07:29;101398.22;;;6.08;100.00
52535;BME280;38443;53.164;5.802;2023-12-20T07:09:54;101396.47;;;6.02;100.00
52535;BME280;38443;53.164;5.802;2023-12-20T07:12:20;101390.28;;;6.02;100.00
52535;BME280;38443;53.164;5.802;2023-12-20T07:14:45;101399.13;;;6.01;100.00
52535;BME280;38443;53.164;5.802;2023-12-20T07:17:11;101391.16;;;5.99;100.00
52535;BME280;38443;53.164;5.802;2023-12-20T07:19:41;101395.56;;;5.97;100.00
52535;BME280;38443;53.164;5.802;2023-12-20T07:22:07;101400.00;;;5.95;100.00
52535;BME280;38443;53.164;5.802;2023-12-20T07:24:32;101389.41;;;5.99;100.00
52535;BME280;38443;53.164;5.802;2023-12-20T07:26:59;101396.44;;;6.08;100.00
52535;BME280;38443;53.164;5.802;2023-12-20T07:29:24;101405.31;;;6.13;100.00
52535;BME280;38443;53.164;5.802;2023-12-20T07:31:50;101404.41;;;6.13;100.00
52535;BME280;38443;53.164;5.802;2023-12-20T07:34:17;101388.47;;;6.13;100.00
52535;BME280;38443;53.164;5.802;2023-12-20T07:36:42;101405.28;;;6.16;100.00
52535;BME280;38443;53.164;5.802;2023-12-20T07:39:07;101423.91;;;6.19;100.00
52535;BME280;38443;53.164;5.802;2023-12-20T07:41:33;101431.88;;;6.18;100.00
52535;BME280;38443;53.164;5.802;2023-12-20T07:43:58;101426.56;;;6.19;100.00
52535;BME280;38443;53.164;5.802;2023-12-20T07:46:24;101428.31;;;6.13;100.00
52535;BME280;38443;53.164;5.802;2023-12-20T07:48:49;101424.78;;;6.12;100.00
52535;BME280;38443;53.164;5.802;2023-12-20T07:51:14;101443.41;;;6.15;100.00
52535;BME280;38443;53.164;5.802;2023-12-20T07:53:40;101433.66;;;6.16;100.00
52535;BME280;38443;53.164;5.802;2023-12-20T07:56:15;101456.69;;;6.06;100.00
52535;BME280;38443;53.164;5.802;2023-12-20T07:58:40;101446.91;;;5.87;100.00
52535;BME280;38443;53.164;5.802;2023-12-20T08:01:05;101453.97;;;5.57;100.00
52535;BME280;38443;53.164;5.802;2023-12-20T08:03:31;101469.03;;;5.44;100.00
52535;BME280;38443;53.164;5.802;2023-12-20T08:05:56;101469.91;;;5.42;100.00
52535;BME280;38443;53.164;5.802;2023-12-20T08:08:24;101486.72;;;5.45;100.00
52535;BME280;38443;53.164;5.802;2023-12-20T08:10:50;101503.56;;;5.53;100.00
52535;BME280;38443;53.164;5.802;2023-12-20T08:13:15;101515.94;;;5.54;100.00
52535;BME280;38443;53.164;5.802;2023-12-20T08:15:40;101526.56;;;5.59;100.00
52535;BME280;38443;53.164;5.802;2023-12-20T08:18:06;101541.63;;;5.65;100.00
52535;BME280;38443;53.164;5.802;2023-12-20T08:20:31;101551.38;;;5.70;100.00
52535;BME280;38443;53.164;5.802;2023-12-20T08:22:56;101561.16;;;5.77;100.00
52535;BME280;38443;53.164;5.802;2023-12-20T08:25:21;101568.25;;;5.85;100.00
52535;BME280;38443;53.164;5.802;2023-12-20T08:27:47;101579.78;;;5.90;100.00
52535;BME280;38443;53.164;5.802;2023-12-20T08:30:12;101582.44;;;5.94;100.00
52535;BME280;38443;53.164;5.802;2023-12-20T08:32:38;101600.19;;;6.03;100.00
52535;BME280;38443;53.164;5.802;2023-12-20T08:35:03;101593.13;;;6.08;100.00
52535;BME280;38443;53.164;5.802;2023-12-20T08:37:29;101614.38;;;6.11;100.00
52535;BME280;38443;53.164;5.802;2023-12-20T08:39:55;101601.97;;;6.15;100.00
52535;BME280;38443;53.164;5.802;2023-12-20T08:42:20;101612.63;;;6.13;100.00
52535;BME280;38443;53.164;5.802;2023-12-20T08:44:46;101612.63;;;6.12;100.00
52535;BME280;38443;53.164;5.802;2023-12-20T08:47:11;101618.81;;;6.14;100.00
52535;BME280;38443;53.164;5.802;2023-12-20T08:49:38;101614.41;;;6.17;100.00
52535;BME280;38443;53.164;5.802;2023-12-20T08:52:04;101603.78;;;6.17;100.00
52535;BME280;38443;53.164;5.802;2023-12-20T08:54:29;101594.03;;;6.19;100.00
52535;BME280;38443;53.164;5.802;2023-12-20T08:56:54;101598.44;;;6.22;100.00
52535;BME280;38443;53.164;5.802;2023-12-20T08:59:20;101633.00;;;6.16;100.00
52535;BME280;38443;53.164;5.802;2023-12-20T09:01:45;101613.31;;;5.58;100.00
52535;BME280;38443;53.164;5.802;2023-12-20T09:04:11;101585.81;;;5.33;100.00
52535;BME280;38443;53.164;5.802;2023-12-20T09:06:36;101564.44;;;5.09;100.00
52535;BME280;38443;53.164;5.802;2023-12-20T09:09:02;101553.78;;;4.98;100.00
52535;BME280;38443;53.164;5.802;2023-12-20T09:11:27;101561.69;;;4.87;100.00
52535;BME280;38443;53.164;5.802;2023-12-20T09:13:52;101573.16;;;4.83;100.00
52535;BME280;38443;53.164;5.802;2023-12-20T09:16:18;101595.22;;;4.77;100.00
52535;BME280;38443;53.164;5.802;2023-12-20T09:18:43;101611.09;;;4.74;100.00
52535;BME280;38443;53.164;5.802;2023-12-20T09:21:08;101608.44;;;4.70;100.00
52535;BME280;38443;53.164;5.802;2023-12-20T09:23:34;101623.44;;;4.68;100.00
52535;BME280;38443;53.164;5.802;2023-12-20T09:25:59;101622.50;;;4.63;100.00
52535;BME280;38443;53.164;5.802;2023-12-20T09:28:24;101644.59;;;4.62;100.00
52535;BME280;38443;53.164;5.802;2023-12-20T09:30:50;101653.41;;;4.60;100.00
52535;BME280;38443;53.164;5.802;2023-12-20T09:33:15;101659.63;;;4.61;100.00
52535;BME280;38443;53.164;5.802;2023-12-20T09:35:41;101675.53;;;4.63;100.00
52535;BME280;38443;53.164;5.802;2023-12-20T09:38:06;101672.03;;;4.65;100.00
52535;BME280;38443;53.164;5.802;2023-12-20T09:40:32;101683.59;;;4.72;100.00
52535;BME280;38443;53.164;5.802;2023-12-20T09:42:58;101700.41;;;4.77;100.00
52535;BME280;38443;53.164;5.802;2023-12-20T09:45:27;101723.41;;;4.78;100.00
52535;BME280;38443;53.164;5.802;2023-12-20T09:47:53;101723.38;;;4.76;100.00
52535;BME280;38443;53.164;5.802;2023-12-20T09:50:20;101720.75;;;4.81;100.00
52535;BME280;38443;53.164;5.802;2023-12-20T09:52:49;101711.97;;;4.84;100.00
52535;BME280;38443;53.164;5.802;2023-12-20T09:55:17;101700.47;;;4.82;100.00
52535;BME280;38443;53.164;5.802;2023-12-20T09:57:42;101695.13;;;4.78;100.00
52535;BME280;38443;53.164;5.802;2023-12-20T10:00:07;101687.13;;;4.74;100.00
52535;BME280;38443;53.164;5.802;2023-12-20T10:02:34;101677.44;;;4.79;100.00
52535;BME280;38443;53.164;5.802;2023-12-20T10:05:01;101668.63;;;4.80;100.00
52535;BME280;38443;53.164;5.802;2023-12-20T10:07:28;101660.72;;;4.91;100.00
52535;BME280;38443;53.164;5.802;2023-12-20T10:09:54;101639.63;;;5.08;100.00
52535;BME280;38443;53.164;5.802;2023-12-20T10:12:20;101626.47;;;5.26;100.00
52535;BME280;38443;53.164;5.802;2023-12-20T10:14:45;101609.69;;;5.35;100.00
52535;BME280;38443;53.164;5.802;2023-12-20T10:17:11;101591.13;;;5.38;100.00
52535;BME280;38443;53.164;5.802;2023-12-20T10:19:36;101578.75;;;5.35;100.00
52535;BME280;38443;53.164;5.802;2023-12-20T10:22:04;101574.31;;;5.39;100.00
52535;BME280;38443;53.164;5.802;2023-12-20T10:24:30;101553.97;;;5.43;100.00
52535;BME280;38443;53.164;5.802;2023-12-20T10:27:05;101541.59;;;5.45;100.00
52535;BME280;38443;53.164;5.802;2023-12-20T10:29:35;101540.72;;;5.55;100.00
52535;BME280;38443;53.164;5.802;2023-12-20T10:32:26;101529.25;;;5.57;100.00
52535;BME280;38443;53.164;5.802;2023-12-20T10:34:53;101529.25;;;5.62;100.00
52535;BME280;38443;53.164;5.802;2023-12-20T10:37:19;101527.47;;;5.64;100.00
52535;BME280;38443;53.164;5.802;2023-12-20T10:39:46;101509.75;;;5.63;100.00
52535;BME280;38443;53.164;5.802;2023-12-20T10:42:14;101496.50;;;5.65;100.00
52535;BME280;38443;53.164;5.802;2023-12-20T10:44:41;101496.50;;;5.66;100.00
52535;BME280;38443;53.164;5.802;2023-12-20T10:47:06;101484.09;;;5.67;100.00
52535;BME280;38443;53.164;5.802;2023-12-20T10:49:34;101477.03;;;5.72;100.00
52535;BME280;38443;53.164;5.802;2023-12-20T10:52:02;101463.75;;;5.73;100.00
52535;BME280;38443;53.164;5.802;2023-12-20T10:54:29;101454.03;;;5.75;100.00
52535;BME280;38443;53.164;5.802;2023-12-20T10:56:54;101451.38;;;5.75;100.00
52535;BME280;38443;53.164;5.802;2023-12-20T10:59:23;101444.28;;;5.77;100.00
52535;BME280;38443;53.164;5.802;2023-12-20T11:01:50;101433.63;;;5.79;100.00
52535;BME280;38443;53.164;5.802;2023-12-20T11:04:39;101421.25;;;5.83;100.00
52535;BME280;38443;53.164;5.802;2023-12-20T11:07:17;101425.66;;;5.85;100.00
52535;BME280;38443;53.164;5.802;2023-12-20T11:09:59;101423.00;;;5.87;100.00
52535;BME280;38443;53.164;5.802;2023-12-20T11:12:37;101418.59;;;5.89;100.00
52535;BME280;38443;53.164;5.802;2023-12-20T11:15:06;101423.91;;;5.89;100.00
52535;BME280;38443;53.164;5.802;2023-12-20T11:17:32;101413.28;;;5.96;100.00
52535;BME280;38443;53.164;5.802;2023-12-20T11:22:26;101400.88;;;6.09;100.00
52535;BME280;38443;53.164;5.802;2023-12-20T11:24:53;101396.44;;;6.16;100.00
52535;BME280;38443;53.164;5.802;2023-12-20T11:27:19;101401.75;;;6.16;100.00
52535;BME280;38443;53.164;5.802;2023-12-20T11:29:55;101400.00;;;6.19;100.00
52535;BME280;38443;53.164;5.802;2023-12-20T11:35:38;101387.53;;;6.23;100.00
52535;BME280;38443;53.164;5.802;2023-12-20T11:37:49;101372.50;;;6.22;100.00
52535;BME280;38443;53.164;5.802;2023-12-20T11:40:18;101376.94;;;6.18;100.00
52535;BME280;38443;53.164;5.802;2023-12-20T11:42:50;101367.19;;;6.22;100.00
52535;BME280;38443;53.164;5.802;2023-12-20T11:45:21;101353.91;;;6.22;100.00
52535;BME280;38443;53.164;5.802;2023-12-20T11:47:48;101345.03;;;6.22;100.00
52535;BME280;38443;53.164;5.802;2023-12-20T11:50:15;101344.13;;;6.21;100.00
52535;BME280;38443;53.164;5.802;2023-12-20T11:52:40;101349.47;;;6.18;100.00
52535;BME280;38443;53.164;5.802;2023-12-20T11:55:06;101355.69;;;6.18;100.00
52535;BME280;38443;53.164;5.802;2023-12-20T11:57:32;101375.19;;;6.14;100.00
52535;BME280;38443;53.164;5.802;2023-12-20T11:59:58;101386.69;;;6.15;100.00
52535;BME280;38443;53.164;5.802;2023-12-20T12:02:23;101389.38;;;6.10;100.00
52535;BME280;38443;53.164;5.802;2023-12-20T12:04:49;101393.81;;;6.10;100.00
52535;BME280;38443;53.164;5.802;2023-12-20T12:07:18;101390.25;;;6.06;100.00
52535;BME280;38443;53.164;5.802;2023-12-20T12:09:43;101404.44;;;6.01;100.00
52535;BME280;38443;53.164;5.802;2023-12-20T12:12:10;101409.75;;;5.96;100.00
52535;BME280;38443;53.164;5.802;2023-12-20T12:14:36;101424.78;;;5.94;100.00
52535;BME280;38443;53.164;5.802;2023-12-20T12:17:02;101429.22;;;5.90;100.00
52535;BME280;38443;53.164;5.802;2023-12-20T12:19:27;101438.94;;;5.87;100.00
52535;BME280;38443;53.164;5.802;2023-12-20T12:22:06;101442.50;;;5.83;100.00
52535;BME280;38443;53.164;5.802;2023-12-20T12:24:38;101443.38;;;5.77;100.00
52535;BME280;38443;53.164;5.802;2023-12-20T12:27:06;101450.47;;;5.69;100.00
52535;BME280;38443;53.164;5.802;2023-12-20T12:29:31;101444.25;;;5.60;100.00
52535;BME280;38443;53.164;5.802;2023-12-20T12:31:56;101451.34;;;5.52;100.00
52535;BME280;38443;53.164;5.802;2023-12-20T12:34:22;101449.53;;;5.47;100.00
52535;BME280;38443;53.164;5.802;2023-12-20T12:36:47;101454.84;;;5.40;100.00
52535;BME280;38443;53.164;5.802;2023-12-20T12:39:13;101458.41;;;5.39;100.00
52535;BME280;38443;53.164;5.802;2023-12-20T12:41:40;101461.06;;;5.38;100.00
52535;BME280;38443;53.164;5.802;2023-12-20T12:44:05;101461.91;;;5.32;100.00
52535;BME280;38443;53.164;5.802;2023-12-20T12:46:31;101465.44;;;5.28;100.00
52535;BME280;38443;53.164;5.802;2023-12-20T12:48:58;101466.34;;;5.27;100.00